createdAt,value
2019-05-01T00:02:25.890Z,40.27
2019-05-01T00:04:58.506Z,41.53
2019-05-01T00:07:31.237Z,40.60
2019-05-01T00:10:04.940Z,41.13
2019-05-01T00:12:34.638Z,41.37
2019-05-01T00:15:05.496Z,40.60
2019-05-01T00:17:35.882Z,40.13
2019-05-01T00:20:05.585Z,38.97
2019-05-01T00:22:34.266Z,39.13
2019-05-01T00:25:03.334Z,41.30
2019-05-01T00:27:34.554Z,40.97
2019-05-01T00:30:05.411Z,39.73
2019-05-01T00:32:36.762Z,40.45
2019-05-01T00:35:06.874Z,41.97
2019-05-01T00:37:35.347Z,41.03
2019-05-01T00:40:05.974Z,42.60
2019-05-01T00:42:34.852Z,40.63
2019-05-01T00:45:05.201Z,40.67
2019-05-01T00:47:33.672Z,41.73
2019-05-01T00:50:09.226Z,41.83
2019-05-01T00:52:37.803Z,41.77
2019-05-01T00:55:08.348Z,42.80
2019-05-01T00:57:38.480Z,43.43
2019-05-01T01:00:25.174Z,41.80
2019-05-01T01:02:58.674Z,43.13
2019-05-01T01:05:30.233Z,42.37
2019-05-01T01:08:02.317Z,41.67
2019-05-01T01:10:30.775Z,42.73
2019-05-01T01:12:59.291Z,44.48
2019-05-01T01:15:28.904Z,43.57
2019-05-01T01:17:57.474Z,42.73
2019-05-01T01:20:26.033Z,41.67
2019-05-01T01:22:54.741Z,41.67
2019-05-01T01:25:23.512Z,43.90
2019-05-01T01:27:52.043Z,43.03
2019-05-01T01:30:22.630Z,41.67
2019-05-01T01:32:51.185Z,42.20
2019-05-01T01:35:21.121Z,40.80
2019-05-01T01:37:50.693Z,41.27
2019-05-01T01:40:21.027Z,41.33
2019-05-01T01:42:52.688Z,42.83
2019-05-01T01:45:29.025Z,43.63
2019-05-01T01:48:11.587Z,42.43
2019-05-01T01:51:11.171Z,41.77
2019-05-01T01:53:41.733Z,41.97
2019-05-01T01:56:10.291Z,42.00
2019-05-01T01:58:40.872Z,43.33
2019-05-01T02:01:27.083Z,41.70
2019-05-01T02:03:59.585Z,42.07
2019-05-01T02:06:30.141Z,42.47
2019-05-01T02:08:58.765Z,42.33
2019-05-01T02:11:31.346Z,42.50
2019-05-01T02:14:03.046Z,41.50
2019-05-01T02:16:31.589Z,44.50
2019-05-01T02:19:00.249Z,41.77
2019-05-01T02:21:28.947Z,42.47
2019-05-01T02:24:01.210Z,43.00
2019-05-01T02:26:43.551Z,43.20
2019-05-01T02:29:15.843Z,42.90
2019-05-01T02:31:52.595Z,42.67
2019-05-01T02:34:43.862Z,43.70
2019-05-01T02:37:15.529Z,42.77
2019-05-01T02:39:45.892Z,45.08
2019-05-01T02:42:15.904Z,41.50
2019-05-01T02:44:47.533Z,41.93
2019-05-01T02:47:26.226Z,40.77
2019-05-01T02:50:06.883Z,41.67
2019-05-01T02:52:38.110Z,44.03
2019-05-01T02:55:11.433Z,43.90
2019-05-01T02:57:41.552Z,44.87
2019-05-01T03:00:12.342Z,39.90
2019-05-01T03:02:41.227Z,43.17
2019-05-01T03:05:11.106Z,41.80
2019-05-01T03:07:45.170Z,41.10
2019-05-01T03:10:16.324Z,40.75
2019-05-01T03:12:48.801Z,42.13
2019-05-01T03:15:20.501Z,40.97
2019-05-01T03:18:10.130Z,39.30
2019-05-01T03:20:41.015Z,39.93
2019-05-01T03:23:14.946Z,40.37
2019-05-01T03:25:43.959Z,39.13
2019-05-01T03:28:13.420Z,37.45
2019-05-01T03:30:43.682Z,40.80
2019-05-01T03:33:12.648Z,40.20
2019-05-01T03:35:43.552Z,41.85
2019-05-01T03:38:12.625Z,41.20
2019-05-01T03:40:42.327Z,41.17
2019-05-01T03:43:12.264Z,40.73
2019-05-01T03:45:41.575Z,39.63
2019-05-01T03:48:10.346Z,40.00
2019-05-01T03:50:40.191Z,41.50
2019-05-01T03:53:10.216Z,44.20
2019-05-01T03:55:39.093Z,42.93
2019-05-01T03:58:07.945Z,40.03
2019-05-01T04:00:41.218Z,43.30
2019-05-01T04:03:30.152Z,41.75
2019-05-01T04:05:58.848Z,41.43
2019-05-01T04:08:28.007Z,40.77
2019-05-01T04:10:58.043Z,40.93
2019-05-01T04:13:26.851Z,39.87
2019-05-01T04:15:56.697Z,41.17
2019-05-01T04:18:27.760Z,41.30
2019-05-01T04:20:56.608Z,38.20
2019-05-01T04:23:25.236Z,41.13
2019-05-01T04:25:56.566Z,40.67
2019-05-01T04:28:44.381Z,39.73
2019-05-01T04:31:23.829Z,39.27
2019-05-01T04:33:55.473Z,39.10
2019-05-01T04:36:34.609Z,38.47
2019-05-01T04:39:05.638Z,39.60
2019-05-01T04:41:35.210Z,40.65
2019-05-01T04:44:05.071Z,42.73
2019-05-01T04:46:35.743Z,43.85
2019-05-01T04:49:04.644Z,44.87
2019-05-01T04:51:33.706Z,44.20
2019-05-01T04:54:05.157Z,43.23
2019-05-01T04:56:37.867Z,43.17
2019-05-01T04:59:06.674Z,44.93
2019-05-01T05:01:51.917Z,42.83
2019-05-01T05:04:22.195Z,41.50
2019-05-01T05:06:53.182Z,42.10
2019-05-01T05:09:41.787Z,41.77
2019-05-01T05:12:16.361Z,38.47
2019-05-01T05:15:03.038Z,38.53
2019-05-01T05:17:34.729Z,40.17
2019-05-01T05:20:04.928Z,39.20
2019-05-01T05:22:33.973Z,38.03
2019-05-01T05:25:02.609Z,39.03
2019-05-01T05:27:35.647Z,36.48
2019-05-01T05:30:05.108Z,37.33
2019-05-01T05:32:38.094Z,38.83
2019-05-01T05:35:07.878Z,38.50
2019-05-01T05:37:56.923Z,39.47
2019-05-01T05:40:34.096Z,37.33
2019-05-01T05:43:03.772Z,41.08
2019-05-01T05:45:34.051Z,38.48
2019-05-01T05:48:03.544Z,39.08
2019-05-01T05:50:48.654Z,38.57
2019-05-01T05:53:23.005Z,39.60
2019-05-01T05:55:55.611Z,36.87
2019-05-01T05:58:27.159Z,36.60
2019-05-01T06:01:07.005Z,34.87
2019-05-01T06:03:58.310Z,36.53
2019-05-01T06:06:30.652Z,35.27
2019-05-01T06:09:01.923Z,34.53
2019-05-01T06:11:38.034Z,33.53
2019-05-01T06:14:14.179Z,32.17
2019-05-01T06:16:59.709Z,34.30
2019-05-01T06:19:30.990Z,33.28
2019-05-01T06:22:17.243Z,31.60
2019-05-01T06:25:04.078Z,31.23
2019-05-01T06:27:33.409Z,34.00
2019-05-01T06:30:06.674Z,33.55
2019-05-01T06:32:34.775Z,32.43
2019-05-01T06:35:04.629Z,32.10
2019-05-01T06:37:51.051Z,31.40
2019-05-01T06:40:22.528Z,29.43
2019-05-01T06:42:53.193Z,32.07
2019-05-01T06:45:23.466Z,30.10
2019-05-01T06:47:54.531Z,31.07
2019-05-01T06:50:24.614Z,30.23
2019-05-01T06:52:53.302Z,31.33
2019-05-01T06:55:22.525Z,29.93
2019-05-01T06:57:52.982Z,30.20
2019-05-01T07:00:21.602Z,32.17
2019-05-01T07:02:54.872Z,31.83
2019-05-01T07:05:24.584Z,32.23
2019-05-01T07:07:55.525Z,34.07
2019-05-01T07:10:31.767Z,28.17
2019-05-01T07:12:59.871Z,30.62
2019-05-01T07:15:28.698Z,28.93
2019-05-01T07:17:58.549Z,30.87
2019-05-01T07:20:47.231Z,29.63
2019-05-01T07:23:17.346Z,30.93
2019-05-01T07:25:48.584Z,30.57
2019-05-01T07:28:17.586Z,29.13
2019-05-01T07:30:49.885Z,28.77
2019-05-01T07:33:18.258Z,30.00
2019-05-01T07:35:50.360Z,30.00
2019-05-01T07:38:19.354Z,29.45
2019-05-01T07:40:49.618Z,30.33
2019-05-01T07:43:23.909Z,28.43
2019-05-01T07:46:02.328Z,28.05
2019-05-01T07:48:35.977Z,28.40
2019-05-01T07:51:07.016Z,28.70
2019-05-01T07:53:36.116Z,28.67
2019-05-01T07:56:06.412Z,28.90
2019-05-01T07:58:35.338Z,29.53
2019-05-01T08:01:18.329Z,28.40
2019-05-01T08:03:49.242Z,28.07
2019-05-01T08:06:21.496Z,27.07
2019-05-01T08:08:52.807Z,28.83
2019-05-01T08:11:22.287Z,29.30
2019-05-01T08:13:50.759Z,29.07
2019-05-01T08:16:21.051Z,28.77
2019-05-01T08:18:51.245Z,28.83
2019-05-01T08:21:26.152Z,28.93
2019-05-01T08:23:51.765Z,28.90
2019-05-01T08:26:20.253Z,28.57
2019-05-01T08:29:02.914Z,29.37
2019-05-01T08:31:42.574Z,28.93
2019-05-01T08:34:30.581Z,29.90
2019-05-01T08:36:59.086Z,29.45
2019-05-01T08:39:28.437Z,28.92
2019-05-01T08:42:03.108Z,28.67
2019-05-01T08:44:33.016Z,28.70
2019-05-01T08:47:05.653Z,28.53
2019-05-01T08:49:42.244Z,29.90
2019-05-01T08:52:12.862Z,30.23
2019-05-01T08:54:42.407Z,29.72
2019-05-01T08:57:10.884Z,29.27
2019-05-01T08:59:39.559Z,30.77
2019-05-01T09:02:09.744Z,31.73
2019-05-01T09:04:39.731Z,30.30
2019-05-01T09:07:08.405Z,31.82
2019-05-01T09:09:39.742Z,30.00
2019-05-01T09:12:11.730Z,31.57
2019-05-01T09:14:37.488Z,31.83
2019-05-01T09:17:06.825Z,32.13
2019-05-01T09:19:35.297Z,31.10
2019-05-01T09:22:03.882Z,30.97
2019-05-01T09:24:32.417Z,32.17
2019-05-01T09:27:11.655Z,31.67
2019-05-01T09:29:46.802Z,32.50
2019-05-01T09:32:14.783Z,30.50
2019-05-01T09:34:43.615Z,32.40
2019-05-01T09:37:12.206Z,31.43
2019-05-01T09:39:47.305Z,31.40
2019-05-01T09:42:24.090Z,32.27
2019-05-01T09:44:48.736Z,30.37
2019-05-01T09:47:18.591Z,32.53
2019-05-01T09:49:48.836Z,33.03
2019-05-01T09:52:23.393Z,33.77
2019-05-01T09:54:56.252Z,33.10
2019-05-01T09:57:24.715Z,32.10
2019-05-01T09:59:54.004Z,32.57
2019-05-01T10:02:23.662Z,33.33
2019-05-01T10:04:55.080Z,33.83
2019-05-01T10:07:28.409Z,32.98
2019-05-01T10:09:54.029Z,35.57
2019-05-01T10:12:22.708Z,35.50
2019-05-01T10:14:51.224Z,35.50
2019-05-01T10:17:19.708Z,36.40
2019-05-01T10:19:50.158Z,33.53
2019-05-01T10:22:19.935Z,35.00
2019-05-01T10:24:48.398Z,34.93
2019-05-01T10:27:18.512Z,34.67
2019-05-01T10:30:04.840Z,36.73
2019-05-01T10:32:35.021Z,36.70
2019-05-01T10:35:06.920Z,37.10
2019-05-01T10:37:35.538Z,38.67
2019-05-01T10:40:05.813Z,35.63
2019-05-01T10:42:34.618Z,35.88
2019-05-01T10:45:05.669Z,36.50
2019-05-01T10:47:37.115Z,34.75
2019-05-01T10:50:07.135Z,35.98
2019-05-01T10:52:35.713Z,36.47
2019-05-01T10:55:06.008Z,35.73
2019-05-01T10:57:40.472Z,35.40
2019-05-01T11:00:10.768Z,35.53
2019-05-01T11:02:39.643Z,36.30
2019-05-01T11:05:10.284Z,37.40
2019-05-01T11:07:38.942Z,36.93
2019-05-01T11:10:11.970Z,37.43
2019-05-01T11:12:40.452Z,35.43
2019-05-01T11:15:10.450Z,36.00
2019-05-01T11:17:38.918Z,35.47
2019-05-01T11:20:08.402Z,35.03
2019-05-01T11:22:36.904Z,36.30
2019-05-01T11:25:07.397Z,35.83
2019-05-01T11:27:35.939Z,36.90
2019-05-01T11:30:07.759Z,36.17
2019-05-01T11:32:40.586Z,36.68
2019-05-01T11:35:27.281Z,35.80
2019-05-01T11:38:09.298Z,36.27
2019-05-01T11:40:43.122Z,36.13
2019-05-01T11:43:14.012Z,36.47
2019-05-01T11:45:42.615Z,36.97
2019-05-01T11:48:11.133Z,37.58
2019-05-01T11:50:39.660Z,36.77
2019-05-01T11:53:08.214Z,36.83
2019-05-01T11:55:37.855Z,36.37
2019-05-01T11:58:06.401Z,36.67
2019-05-01T12:00:36.413Z,37.93
2019-05-01T12:03:05.188Z,37.87
2019-05-01T12:05:34.714Z,39.17
2019-05-01T12:08:03.258Z,36.37
2019-05-01T12:10:31.814Z,37.80
2019-05-01T12:13:00.328Z,37.80
2019-05-01T12:15:30.094Z,38.43
2019-05-01T12:17:58.763Z,37.30
2019-05-01T12:20:27.415Z,38.00
2019-05-01T12:22:56.901Z,37.57
2019-05-01T12:25:28.014Z,38.67
2019-05-01T12:27:56.525Z,39.67
2019-05-01T12:30:26.401Z,39.55
2019-05-01T12:32:54.947Z,38.47
2019-05-01T12:35:23.537Z,41.13
2019-05-01T12:37:55.395Z,38.33
2019-05-01T12:40:25.175Z,38.73
2019-05-01T12:42:53.753Z,39.47
2019-05-01T12:45:25.513Z,39.60
2019-05-01T12:47:57.550Z,40.13
2019-05-01T12:50:26.439Z,39.57
2019-05-01T12:52:59.959Z,37.57
2019-05-01T12:55:39.269Z,39.40
2019-05-01T12:58:07.745Z,41.27
2019-05-01T13:00:51.012Z,38.83
2019-05-01T13:03:20.372Z,38.97
2019-05-01T13:05:48.987Z,39.00
2019-05-01T13:08:20.637Z,38.17
2019-05-01T13:10:50.664Z,39.20
2019-05-01T13:13:22.891Z,37.83
2019-05-01T13:15:51.396Z,40.80
2019-05-01T13:18:20.321Z,39.27
2019-05-01T13:20:48.853Z,38.60
2019-05-01T13:23:18.839Z,37.03
2019-05-01T13:25:48.109Z,38.13
2019-05-01T13:28:29.969Z,39.88
2019-05-01T13:31:17.891Z,37.87
2019-05-01T13:33:47.377Z,38.38
2019-05-01T13:36:17.143Z,40.60
2019-05-01T13:38:45.815Z,40.60
2019-05-01T13:41:16.304Z,39.77
2019-05-01T13:43:45.225Z,41.17
2019-05-01T13:46:15.450Z,38.57
2019-05-01T13:48:44.030Z,37.33
2019-05-01T13:51:18.561Z,36.90
2019-05-01T13:53:47.034Z,38.67
2019-05-01T13:56:16.605Z,37.80
2019-05-01T13:58:46.626Z,37.83
2019-05-01T14:01:16.466Z,38.40
2019-05-01T14:03:45.018Z,38.73
2019-05-01T14:06:15.122Z,38.67
2019-05-01T14:08:43.650Z,38.27
2019-05-01T14:11:12.128Z,38.38
2019-05-01T14:13:43.504Z,38.20
2019-05-01T14:16:14.363Z,37.67
2019-05-01T14:18:42.192Z,37.60
2019-05-01T14:21:24.056Z,39.43
2019-05-01T14:23:54.266Z,38.87
2019-05-01T14:26:22.800Z,37.73
2019-05-01T14:28:51.440Z,36.15
2019-05-01T14:31:20.168Z,36.73
2019-05-01T14:33:49.986Z,37.15
2019-05-01T14:36:19.430Z,38.07
2019-05-01T14:38:47.954Z,38.07
2019-05-01T14:41:16.435Z,37.60
2019-05-01T14:43:45.020Z,39.03
2019-05-01T14:46:14.675Z,38.20
2019-05-01T14:48:43.172Z,40.03
2019-05-01T14:51:13.278Z,38.03
2019-05-01T14:53:42.764Z,37.93
2019-05-01T14:56:11.416Z,38.78
2019-05-01T14:58:45.084Z,39.40
2019-05-01T15:01:13.616Z,38.10
2019-05-01T15:03:45.315Z,38.37
2019-05-01T15:06:13.832Z,37.90
2019-05-01T15:08:42.326Z,36.90
2019-05-01T15:11:10.790Z,39.07
2019-05-01T15:13:43.485Z,39.08
2019-05-01T15:16:16.428Z,39.15
2019-05-01T15:18:46.531Z,39.57
2019-05-01T15:21:16.343Z,38.87
2019-05-01T15:23:53.305Z,40.10
2019-05-01T15:26:15.000Z,40.93
2019-05-01T15:28:43.505Z,39.40
2019-05-01T15:31:13.128Z,42.43
2019-05-01T15:33:45.758Z,42.00
2019-05-01T15:36:14.360Z,42.65
2019-05-01T15:38:45.682Z,42.70
2019-05-01T15:41:22.226Z,44.23
2019-05-01T15:44:04.400Z,43.57
2019-05-01T15:46:36.114Z,45.00
2019-05-01T15:49:08.968Z,43.47
2019-05-01T15:51:38.496Z,44.73
2019-05-01T15:54:06.977Z,44.17
2019-05-01T15:56:35.517Z,43.57
2019-05-01T15:59:05.905Z,44.50
2019-05-01T16:01:34.451Z,47.07
2019-05-01T16:04:04.048Z,46.47
2019-05-01T16:06:32.619Z,48.00
2019-05-01T16:09:05.094Z,48.05
2019-05-01T16:11:51.561Z,46.23
2019-05-01T16:14:23.270Z,48.13
2019-05-01T16:16:54.919Z,47.33
2019-05-01T16:19:23.505Z,50.88
2019-05-01T16:21:55.029Z,50.33
2019-05-01T16:24:26.595Z,50.93
2019-05-01T16:26:55.111Z,52.53
2019-05-01T16:29:25.886Z,52.93
2019-05-01T16:31:55.591Z,52.03
2019-05-01T16:34:24.117Z,54.13
2019-05-01T16:36:54.235Z,53.10
2019-05-01T16:39:37.043Z,53.85
2019-05-01T16:42:06.643Z,54.67
2019-05-01T16:44:38.197Z,55.45
2019-05-01T16:47:06.659Z,56.08
2019-05-01T16:49:38.181Z,54.33
2019-05-01T16:52:09.065Z,57.93
2019-05-01T16:54:37.558Z,56.40
2019-05-01T16:57:06.681Z,58.23
2019-05-01T16:59:35.183Z,58.10
2019-05-01T17:02:07.246Z,57.20
2019-05-01T17:04:41.873Z,57.50
2019-05-01T17:07:15.048Z,55.67
2019-05-01T17:09:50.999Z,58.13
2019-05-01T17:12:21.190Z,57.13
2019-05-01T17:14:57.209Z,57.27
2019-05-01T17:17:31.296Z,55.23
2019-05-01T17:19:59.755Z,55.10
2019-05-01T17:22:29.792Z,54.83
2019-05-01T17:24:58.372Z,56.37
2019-05-01T17:27:28.452Z,56.67
2019-05-01T17:29:57.120Z,55.48
2019-05-01T17:32:26.236Z,55.87
2019-05-01T17:34:54.726Z,55.57
2019-05-01T17:37:23.253Z,55.38
2019-05-01T17:39:51.728Z,53.83
2019-05-01T17:42:20.271Z,56.43
2019-05-01T17:44:50.334Z,57.40
2019-05-01T17:47:22.534Z,53.67
2019-05-01T17:49:50.663Z,55.73
2019-05-01T17:52:19.394Z,52.03
2019-05-01T17:54:48.007Z,54.17
2019-05-01T17:57:16.470Z,49.07
2019-05-01T17:59:48.107Z,46.53
2019-05-01T18:02:25.186Z,46.73
2019-05-01T18:05:05.065Z,42.67
2019-05-01T18:07:34.980Z,42.07
2019-05-01T18:10:08.974Z,39.90
2019-05-01T18:12:37.444Z,36.70
2019-05-01T18:15:07.281Z,38.63
2019-05-01T18:17:35.846Z,37.50
2019-05-01T18:20:05.619Z,35.75
2019-05-01T18:22:54.435Z,33.73
2019-05-01T18:25:28.192Z,35.30
2019-05-01T18:27:59.458Z,33.17
2019-05-01T18:30:30.909Z,33.63
2019-05-01T18:33:02.167Z,34.03
2019-05-01T18:35:31.772Z,33.07
2019-05-01T18:38:15.280Z,33.27
2019-05-01T18:40:51.106Z,33.30
2019-05-01T18:43:19.689Z,32.13
2019-05-01T18:45:50.803Z,32.50
2019-05-01T18:48:20.168Z,32.27
2019-05-01T18:50:54.866Z,30.77
2019-05-01T18:53:20.767Z,30.20
2019-05-01T18:55:49.450Z,30.93
2019-05-01T18:58:22.338Z,29.17
2019-05-01T19:00:51.098Z,29.20
2019-05-01T19:03:22.341Z,30.20
2019-05-01T19:05:51.166Z,29.60
2019-05-01T19:08:22.116Z,29.70
2019-05-01T19:10:50.582Z,31.07
2019-05-01T19:13:21.555Z,29.80
2019-05-01T19:15:51.124Z,30.53
2019-05-01T19:18:21.154Z,29.47
2019-05-01T19:20:59.387Z,29.40
2019-05-01T19:23:27.619Z,29.63
2019-05-01T19:25:56.274Z,29.97
2019-05-01T19:28:22.563Z,30.02
2019-05-01T19:30:56.628Z,30.77
2019-05-01T19:33:24.463Z,30.83
2019-05-01T19:35:53.003Z,31.73
2019-05-01T19:38:22.253Z,31.17
2019-05-01T19:40:53.722Z,31.87
2019-05-01T19:43:24.814Z,29.83
2019-05-01T19:45:53.808Z,30.33
2019-05-01T19:48:22.640Z,30.92
2019-05-01T19:50:51.116Z,32.93
2019-05-01T19:53:19.738Z,31.70
2019-05-01T19:55:48.589Z,30.83
2019-05-01T19:58:18.148Z,30.80
2019-05-01T20:00:49.734Z,31.53
2019-05-01T20:03:18.701Z,31.57
2019-05-01T20:05:48.757Z,31.90
2019-05-01T20:08:38.153Z,30.80
2019-05-01T20:11:09.553Z,30.30
2019-05-01T20:13:40.140Z,31.63
2019-05-01T20:16:12.231Z,31.57
2019-05-01T20:18:41.879Z,30.23
2019-05-01T20:21:10.370Z,30.80
2019-05-01T20:23:39.073Z,30.97
2019-05-01T20:26:07.601Z,31.63
2019-05-01T20:28:37.354Z,32.33
2019-05-01T20:31:06.316Z,31.33
2019-05-01T20:33:38.643Z,31.00
2019-05-01T20:36:06.609Z,31.67
2019-05-01T20:38:35.265Z,33.33
2019-05-01T20:41:03.847Z,30.77
2019-05-01T20:43:33.613Z,30.00
2019-05-01T20:46:02.694Z,29.20
2019-05-01T20:48:31.261Z,32.53
2019-05-01T20:51:02.662Z,31.40
2019-05-01T20:53:33.316Z,31.57
2019-05-01T20:56:09.469Z,32.93
2019-05-01T20:58:38.020Z,31.67
2019-05-01T21:01:08.272Z,30.93
2019-05-01T21:03:40.277Z,31.93
2019-05-01T21:06:11.710Z,34.03
2019-05-01T21:08:43.364Z,33.27
2019-05-01T21:11:15.085Z,33.83
2019-05-01T21:13:43.584Z,33.88
2019-05-01T21:16:12.066Z,34.43
2019-05-01T21:18:40.524Z,34.30
2019-05-01T21:21:09.013Z,35.60
2019-05-01T21:23:39.124Z,35.47
2019-05-01T21:26:07.594Z,34.23
2019-05-01T21:28:38.850Z,36.53
2019-05-01T21:31:07.387Z,36.27
2019-05-01T21:33:40.791Z,37.77
2019-05-01T21:36:09.114Z,34.00
2019-05-01T21:38:40.550Z,35.67
2019-05-01T21:41:12.194Z,35.10
2019-05-01T21:43:42.513Z,34.93
2019-05-01T21:46:12.551Z,35.50
2019-05-01T21:48:43.562Z,34.90
2019-05-01T21:51:12.633Z,34.40
2019-05-01T21:53:46.410Z,37.43
2019-05-01T21:56:15.457Z,36.03
2019-05-01T21:58:45.254Z,34.93
2019-05-01T22:01:14.087Z,35.80
2019-05-01T22:03:42.572Z,35.27
2019-05-01T22:06:15.224Z,36.40
2019-05-01T22:08:41.578Z,35.77
2019-05-01T22:11:10.676Z,35.20
2019-05-01T22:13:39.235Z,35.47
2019-05-01T22:16:12.258Z,36.50
2019-05-01T22:18:45.543Z,35.50
2019-05-01T22:21:21.697Z,35.85
2019-05-01T22:24:00.916Z,37.93
2019-05-01T22:26:31.081Z,36.45
2019-05-01T22:29:01.503Z,35.35
2019-05-01T22:34:24.446Z,35.23
2019-05-01T22:36:53.057Z,36.63
2019-05-01T22:39:24.550Z,35.87
2019-05-01T22:41:54.307Z,36.13
2019-05-01T22:44:23.721Z,38.97
2019-05-01T22:46:52.279Z,38.27
2019-05-01T22:49:22.321Z,38.23
2019-05-01T22:51:53.819Z,37.23
2019-05-01T22:54:22.466Z,37.10
2019-05-01T22:56:53.785Z,38.23
2019-05-01T22:59:22.247Z,37.53
2019-05-01T23:01:53.061Z,38.33
2019-05-01T23:04:25.419Z,38.23
2019-05-01T23:06:54.197Z,38.87
2019-05-01T23:09:27.823Z,35.65
2019-05-01T23:11:53.485Z,37.70
2019-05-01T23:14:22.627Z,41.90
2019-05-01T23:17:09.476Z,37.00
2019-05-01T23:19:39.033Z,38.70
2019-05-01T23:22:07.601Z,35.90
2019-05-01T23:24:37.373Z,33.93
2019-05-01T23:27:05.880Z,38.47
2019-05-01T23:29:34.482Z,35.80
2019-05-01T23:32:03.189Z,35.80
2019-05-01T23:34:32.669Z,39.77
2019-05-01T23:37:01.151Z,37.07
2019-05-01T23:39:39.727Z,36.03
2019-05-01T23:42:02.590Z,35.10
2019-05-01T23:44:38.216Z,35.17
2019-05-01T23:47:05.626Z,35.67
2019-05-01T23:49:34.126Z,34.43
2019-05-01T23:52:05.769Z,35.80
2019-05-01T23:54:35.236Z,37.67
2019-05-01T23:57:06.632Z,38.10
2019-05-01T23:59:35.085Z,35.25
